createdAt,value
2023-03-24T00:02:13.349Z,97194.97
2023-03-24T00:04:59.181Z,97211.69
2023-03-24T00:07:46.655Z,97213.47
2023-03-24T00:10:32.307Z,97216.38
2023-03-24T00:13:18.290Z,97215.59
2023-03-24T00:16:08.799Z,97207.72
2023-03-24T00:18:54.681Z,97217.13
2023-03-24T00:21:39.838Z,97212.09
2023-03-24T00:24:25.070Z,97205.03
2023-03-24T00:27:10.538Z,97209.38
2023-03-24T00:29:55.959Z,97172.13
2023-03-24T00:32:41.568Z,97215.81
2023-03-24T00:35:26.964Z,96947.06
2023-03-24T00:38:12.889Z,97202.16
2023-03-24T00:40:58.287Z,97197.47
2023-03-24T00:43:43.364Z,97202.88
2023-03-24T00:46:28.962Z,97135.22
2023-03-24T00:49:15.606Z,97189.97
2023-03-24T00:52:01.243Z,97194.75
2023-03-24T00:54:48.846Z,97194.53
2023-03-24T00:57:34.128Z,97186.38
2023-03-24T01:00:25.000Z,97178.69
2023-03-24T01:03:12.397Z,97179.19
2023-03-24T01:06:03.986Z,97189.09
2023-03-24T01:08:51.838Z,97168.50
2023-03-24T01:11:40.178Z,97180.88
2023-03-24T01:14:26.189Z,97164.19
2023-03-24T01:17:11.510Z,97171.88
2023-03-24T01:19:57.376Z,97170.09
2023-03-24T01:22:43.312Z,97139.09
2023-03-24T01:25:29.110Z,97142.59
2023-03-24T01:28:17.994Z,97097.78
2023-03-24T01:31:03.487Z,97145.41
2023-03-24T01:33:49.051Z,97139.69
2023-03-24T01:36:34.321Z,97133.38
2023-03-24T01:39:19.699Z,97121.13
2023-03-24T01:42:04.823Z,97127.25
2023-03-24T01:44:51.643Z,97116.38
2023-03-24T01:47:36.912Z,97114.31
2023-03-24T01:50:23.015Z,97110.66
2023-03-24T01:53:08.895Z,97112.75
2023-03-24T01:55:54.798Z,97114.84
2023-03-24T01:58:48.631Z,97110.88
2023-03-24T02:01:39.071Z,97112.41
2023-03-24T02:05:05.220Z,97109.47
2023-03-24T02:08:08.279Z,97100.88
2023-03-24T02:10:55.492Z,97096.34
2023-03-24T02:13:43.030Z,97082.78
2023-03-24T02:16:56.118Z,97085.72
2023-03-24T02:20:03.380Z,97081.69
2023-03-24T02:23:07.001Z,97092.31
2023-03-24T02:25:55.010Z,97080.41
2023-03-24T02:28:49.463Z,97084.97
2023-03-24T02:31:52.916Z,97085.94
2023-03-24T02:35:15.203Z,97072.03
2023-03-24T02:38:17.446Z,97068.69
2023-03-24T02:41:25.994Z,97064.16
2023-03-24T02:44:26.917Z,97055.66
2023-03-24T02:47:46.236Z,97048.78
2023-03-24T02:51:04.132Z,97046.44
2023-03-24T02:54:25.058Z,97040.72
2023-03-24T02:57:25.638Z,97034.38
2023-03-24T03:00:38.746Z,97030.81
2023-03-24T03:03:32.375Z,97016.81
2023-03-24T03:06:27.336Z,97018.63
2023-03-24T03:09:17.535Z,97017.19
2023-03-24T03:12:04.917Z,96996.97
2023-03-24T03:15:01.101Z,97002.13
2023-03-24T03:17:55.508Z,96999.31
2023-03-24T03:20:46.232Z,96990.72
2023-03-24T03:23:40.219Z,96950.16
2023-03-24T03:26:29.291Z,96978.28
2023-03-24T03:29:19.959Z,96970.75
2023-03-24T03:32:09.319Z,96974.66
2023-03-24T03:35:33.436Z,96976.47
2023-03-24T03:38:47.361Z,96968.22
2023-03-24T03:41:32.860Z,96969.28
2023-03-24T03:44:18.519Z,96973.19
2023-03-24T03:47:03.790Z,96978.03
2023-03-24T03:50:01.133Z,96970.00
2023-03-24T03:52:46.558Z,96963.69
2023-03-24T03:55:33.207Z,96943.06
2023-03-24T03:58:18.974Z,96965.97
2023-03-24T04:01:14.669Z,96950.34
2023-03-24T04:04:59.603Z,96949.47
2023-03-24T04:08:43.957Z,96948.53
2023-03-24T04:11:52.493Z,96936.53
2023-03-24T04:15:35.814Z,96929.09
2023-03-24T04:18:54.070Z,96927.28
2023-03-24T04:21:39.127Z,96935.75
2023-03-24T04:24:31.033Z,96916.09
2023-03-24T04:27:33.510Z,96917.09
2023-03-24T04:30:40.523Z,96915.81
2023-03-24T04:33:32.623Z,96914.91
2023-03-24T04:36:28.515Z,96908.50
2023-03-24T04:39:44.200Z,96909.66
2023-03-24T04:42:37.480Z,96884.72
2023-03-24T04:45:23.840Z,96872.78
2023-03-24T04:48:47.730Z,96905.38
2023-03-24T04:51:40.402Z,96904.44
2023-03-24T04:54:32.401Z,96897.97
2023-03-24T04:57:23.144Z,96897.84
2023-03-24T05:00:15.611Z,96904.50
2023-03-24T05:03:00.786Z,96902.59
2023-03-24T05:05:49.023Z,96890.59
2023-03-24T05:08:34.213Z,96887.84
2023-03-24T05:11:20.528Z,96883.44
2023-03-24T05:14:16.256Z,96887.28
2023-03-24T05:17:02.189Z,96860.22
2023-03-24T05:19:47.825Z,96888.00
2023-03-24T05:22:33.275Z,96887.03
2023-03-24T05:25:19.650Z,96900.56
2023-03-24T05:28:05.510Z,96899.19
2023-03-24T05:30:51.481Z,96902.53
2023-03-24T05:33:55.683Z,96897.72
2023-03-24T05:36:41.570Z,96904.16
2023-03-24T05:39:27.445Z,96917.97
2023-03-24T05:42:26.208Z,96908.41
2023-03-24T05:45:12.288Z,96898.31
2023-03-24T05:47:58.612Z,96877.94
2023-03-24T05:50:56.260Z,96904.59
2023-03-24T05:53:41.729Z,96908.03
2023-03-24T05:56:27.294Z,96904.75
2023-03-24T05:59:38.953Z,96911.69
2023-03-24T06:02:34.662Z,96910.41
2023-03-24T06:05:25.413Z,96872.25
2023-03-24T06:08:11.821Z,96898.75
2023-03-24T06:11:04.385Z,96897.41
2023-03-24T06:13:52.622Z,96906.94
2023-03-24T06:16:38.923Z,96906.28
2023-03-24T06:19:28.039Z,96906.22
2023-03-24T06:22:26.568Z,96908.56
2023-03-24T06:25:13.661Z,96927.44
2023-03-24T06:28:03.550Z,96923.84
2023-03-24T06:30:50.230Z,96927.38
2023-03-24T06:33:44.285Z,96907.81
2023-03-24T06:36:30.077Z,96927.66
2023-03-24T06:39:15.374Z,96922.69
2023-03-24T06:42:01.345Z,96931.84
2023-03-24T06:44:48.541Z,96910.69
2023-03-24T06:47:34.184Z,96917.06
2023-03-24T06:50:19.975Z,96917.41
2023-03-24T06:53:05.272Z,96913.63
2023-03-24T06:55:52.971Z,96912.53
2023-03-24T06:58:40.977Z,96904.38
2023-03-24T07:01:30.016Z,96905.94
2023-03-24T07:04:20.615Z,96919.25
2023-03-24T07:07:38.156Z,96921.44
2023-03-24T07:10:36.054Z,96925.44
2023-03-24T07:13:22.062Z,96942.94
2023-03-24T07:16:08.529Z,96927.88
2023-03-24T07:18:56.726Z,96940.31
2023-03-24T07:21:42.773Z,96927.97
2023-03-24T07:24:30.544Z,96947.66
2023-03-24T07:27:26.624Z,96897.53
2023-03-24T07:30:12.714Z,96936.09
2023-03-24T07:33:01.683Z,96952.50
2023-03-24T07:35:47.271Z,96929.78
2023-03-24T07:38:33.764Z,96939.03
2023-03-24T07:41:23.731Z,96943.06
2023-03-24T07:44:15.036Z,96968.22
2023-03-24T07:47:07.882Z,96905.50
2023-03-24T07:49:53.434Z,96932.38
2023-03-24T07:52:40.275Z,96955.22
2023-03-24T07:55:26.142Z,96963.63
2023-03-24T07:58:15.829Z,96919.81
2023-03-24T08:01:16.905Z,96963.72
2023-03-24T08:04:05.608Z,96966.13
2023-03-24T08:07:09.633Z,96960.00
2023-03-24T08:09:54.698Z,96911.34
2023-03-24T08:12:40.618Z,96980.06
2023-03-24T08:15:26.965Z,96976.59
2023-03-24T08:18:12.762Z,96965.19
2023-03-24T08:20:59.289Z,96909.19
2023-03-24T08:23:44.801Z,96981.97
2023-03-24T08:26:30.282Z,96970.91
2023-03-24T08:29:15.801Z,96968.44
2023-03-24T08:32:01.329Z,96980.38
2023-03-24T08:34:46.665Z,96992.16
2023-03-24T08:37:32.159Z,96979.47
2023-03-24T08:40:20.253Z,96956.94
2023-03-24T08:43:08.838Z,96995.75
2023-03-24T08:45:53.974Z,96994.97
2023-03-24T08:48:39.374Z,96991.75
2023-03-24T08:51:25.730Z,96990.94
2023-03-24T08:54:11.270Z,96992.91
2023-03-24T08:56:56.678Z,97000.25
2023-03-24T08:59:41.827Z,97002.75
2023-03-24T09:02:26.968Z,96996.19
2023-03-24T09:05:13.285Z,96994.13
2023-03-24T09:07:58.933Z,96936.22
2023-03-24T09:10:44.416Z,96940.13
2023-03-24T09:13:30.054Z,96908.59
2023-03-24T09:16:17.002Z,96982.00
2023-03-24T09:19:02.301Z,96994.97
2023-03-24T09:21:48.810Z,97006.88
2023-03-24T09:24:34.202Z,97014.69
2023-03-24T09:27:19.584Z,97049.41
2023-03-24T09:30:05.187Z,97041.69
2023-03-24T09:32:50.591Z,97051.22
2023-03-24T09:35:35.859Z,97025.63
2023-03-24T09:38:21.123Z,96991.31
2023-03-24T09:41:17.742Z,97037.13
2023-03-24T09:44:23.624Z,97051.31
2023-03-24T09:47:21.101Z,97053.88
2023-03-24T09:50:16.550Z,97062.50
2023-03-24T09:53:28.306Z,97062.22
2023-03-24T09:56:16.496Z,97056.97
2023-03-24T09:59:07.872Z,97062.75
2023-03-24T10:01:53.175Z,97056.75
2023-03-24T10:04:38.370Z,97008.50
2023-03-24T10:07:27.824Z,97079.69
2023-03-24T10:10:30.864Z,97081.59
2023-03-24T10:13:40.790Z,97068.13
2023-03-24T10:16:50.970Z,97091.72
2023-03-24T10:20:04.247Z,97094.25
2023-03-24T10:22:55.395Z,97097.38
2023-03-24T10:25:50.791Z,97094.56
2023-03-24T10:28:51.460Z,97119.13
2023-03-24T10:31:38.301Z,97132.59
2023-03-24T10:34:28.463Z,97129.41
2023-03-24T10:37:14.547Z,97120.06
2023-03-24T10:40:00.620Z,97129.22
2023-03-24T10:42:49.201Z,97130.72
2023-03-24T10:45:56.415Z,97095.50
2023-03-24T10:48:41.699Z,97133.72
2023-03-24T10:51:31.817Z,97122.78
2023-03-24T10:54:19.097Z,97127.31
2023-03-24T10:57:16.328Z,97123.63
2023-03-24T11:00:10.193Z,97108.59
2023-03-24T11:03:06.691Z,97126.81
2023-03-24T11:05:59.051Z,97112.91
2023-03-24T11:08:44.345Z,97088.63
2023-03-24T11:11:33.170Z,97107.69
2023-03-24T11:14:26.128Z,97105.94
2023-03-24T11:17:14.434Z,97102.25
2023-03-24T11:19:59.463Z,97112.97
2023-03-24T11:23:08.726Z,97139.09
2023-03-24T11:26:14.719Z,97160.72
2023-03-24T11:29:12.895Z,97156.19
2023-03-24T11:32:00.645Z,97107.97
2023-03-24T11:34:54.688Z,97120.91
2023-03-24T11:37:42.712Z,97164.34
2023-03-24T11:40:29.491Z,97174.91
2023-03-24T11:43:21.053Z,97190.16
2023-03-24T11:46:18.747Z,97178.81
2023-03-24T11:49:04.796Z,97178.06
2023-03-24T11:51:54.236Z,97150.22
2023-03-24T11:54:40.049Z,97172.78
2023-03-24T11:57:45.812Z,97124.06
2023-03-24T12:00:37.883Z,97152.66
2023-03-24T12:03:44.691Z,97136.69
2023-03-24T12:06:48.585Z,97127.63
2023-03-24T12:09:48.266Z,97137.44
2023-03-24T12:13:01.296Z,97139.66
2023-03-24T12:16:20.675Z,97130.56
2023-03-24T12:19:24.763Z,97138.69
2023-03-24T12:22:28.074Z,97142.63
2023-03-24T12:25:29.731Z,97135.91
2023-03-24T12:28:29.898Z,97145.00
2023-03-24T12:31:36.730Z,97151.47
2023-03-24T12:34:59.284Z,97153.47
2023-03-24T12:37:47.834Z,97152.97
2023-03-24T12:40:54.394Z,97142.94
2023-03-24T12:43:58.005Z,97169.34
2023-03-24T12:47:12.018Z,97141.22
2023-03-24T12:50:21.247Z,97115.56
2023-03-24T12:53:36.978Z,97140.84
2023-03-24T12:56:30.422Z,97112.25
2023-03-24T12:59:28.665Z,97143.63
2023-03-24T13:02:29.297Z,97090.47
2023-03-24T13:05:38.265Z,97107.03
2023-03-24T13:08:24.556Z,97136.59
2023-03-24T13:11:21.896Z,97127.78
2023-03-24T13:14:22.628Z,97123.22
2023-03-24T13:17:17.784Z,97126.22
2023-03-24T13:20:06.624Z,97121.69
2023-03-24T13:22:52.192Z,97129.69
2023-03-24T13:25:56.382Z,97121.97
2023-03-24T13:29:03.126Z,97120.63
2023-03-24T13:32:00.891Z,97114.44
2023-03-24T13:34:59.505Z,97109.88
2023-03-24T13:38:20.279Z,97134.88
2023-03-24T13:41:10.584Z,97146.81
2023-03-24T13:44:03.198Z,97134.31
2023-03-24T13:47:15.794Z,97127.81
2023-03-24T13:50:05.584Z,97138.41
2023-03-24T13:52:50.870Z,97145.00
2023-03-24T13:55:38.625Z,97135.59
2023-03-24T13:58:27.091Z,97147.84
2023-03-24T14:01:12.394Z,97148.66
2023-03-24T14:04:42.939Z,97151.75
2023-03-24T14:07:33.984Z,97145.31
2023-03-24T14:10:19.334Z,97144.88
2023-03-24T14:13:19.340Z,97141.06
2023-03-24T14:16:27.665Z,97147.25
2023-03-24T14:19:16.184Z,97143.81
2023-03-24T14:22:15.344Z,97134.84
2023-03-24T14:25:02.036Z,97125.66
2023-03-24T14:27:49.180Z,97129.09
2023-03-24T14:30:34.519Z,97081.25
2023-03-24T14:33:25.422Z,97134.75
2023-03-24T14:36:11.040Z,97125.38
2023-03-24T14:39:06.065Z,97121.91
2023-03-24T14:41:51.707Z,97120.69
2023-03-24T14:44:45.977Z,97118.53
2023-03-24T14:47:33.822Z,97081.31
2023-03-24T14:50:22.530Z,97118.34
2023-03-24T14:53:19.325Z,97117.94
2023-03-24T14:56:11.799Z,97118.84
2023-03-24T14:59:10.589Z,97052.44
2023-03-24T15:02:03.658Z,97121.09
2023-03-24T15:05:14.203Z,97114.38
2023-03-24T15:08:14.408Z,97102.84
2023-03-24T15:11:04.659Z,97110.31
2023-03-24T15:13:52.037Z,97051.06
2023-03-24T15:16:38.060Z,97101.81
2023-03-24T15:19:29.336Z,97062.44
2023-03-24T15:22:15.355Z,97122.25
2023-03-24T15:25:00.778Z,97118.81
2023-03-24T15:27:50.311Z,97112.63
2023-03-24T15:30:36.095Z,97121.38
2023-03-24T15:33:21.527Z,97120.91
2023-03-24T15:36:21.291Z,97112.53
2023-03-24T15:39:20.972Z,97110.56
2023-03-24T15:42:16.828Z,97100.78
2023-03-24T15:45:29.094Z,97105.59
2023-03-24T15:48:18.235Z,97096.47
2023-03-24T15:51:05.850Z,97093.94
2023-03-24T15:53:57.624Z,97085.28
2023-03-24T15:56:43.096Z,97083.88
2023-03-24T15:59:36.174Z,97079.69
2023-03-24T16:02:41.860Z,97032.31
2023-03-24T16:05:31.914Z,97085.00
2023-03-24T16:08:25.915Z,97082.09
2023-03-24T16:11:13.752Z,97083.63
2023-03-24T16:13:59.764Z,97088.59
2023-03-24T16:16:45.034Z,97015.09
2023-03-24T16:19:30.667Z,97088.13
2023-03-24T16:22:15.742Z,97096.53
2023-03-24T16:25:01.178Z,97092.38
2023-03-24T16:27:46.643Z,97080.31
2023-03-24T16:30:38.107Z,97084.66
2023-03-24T16:33:23.405Z,97092.03
2023-03-24T16:36:11.588Z,97059.25
2023-03-24T16:38:59.670Z,97100.56
2023-03-24T16:41:45.643Z,97093.41
2023-03-24T16:44:31.061Z,97095.38
2023-03-24T16:47:16.571Z,97095.59
2023-03-24T16:50:01.922Z,97096.78
2023-03-24T16:52:47.392Z,97074.69
2023-03-24T16:55:32.797Z,97092.72
2023-03-24T16:58:18.088Z,97097.56
2023-03-24T17:01:14.198Z,97097.69
2023-03-24T17:04:03.775Z,97097.00
2023-03-24T17:06:51.961Z,97097.69
2023-03-24T17:09:37.283Z,97091.59
2023-03-24T17:12:22.574Z,97108.94
2023-03-24T17:15:16.566Z,97099.06
2023-03-24T17:18:02.169Z,97099.06
2023-03-24T17:20:47.634Z,97100.50
2023-03-24T17:23:32.937Z,97101.78
2023-03-24T17:26:18.100Z,97091.91
2023-03-24T17:29:04.317Z,97088.09
2023-03-24T17:31:49.884Z,97094.44
2023-03-24T17:34:35.408Z,97104.31
2023-03-24T17:37:21.166Z,97100.44
2023-03-24T17:40:07.223Z,97107.28
2023-03-24T17:42:52.550Z,97112.28
2023-03-24T17:45:40.296Z,97118.19
2023-03-24T17:48:26.471Z,97091.63
2023-03-24T17:51:11.716Z,97120.53
2023-03-24T17:53:56.904Z,97124.41
2023-03-24T17:56:42.153Z,97121.25
2023-03-24T17:59:27.755Z,97113.22
2023-03-24T18:02:13.848Z,97104.66
2023-03-24T18:04:59.469Z,97106.81
2023-03-24T18:07:44.929Z,97124.03
2023-03-24T18:10:31.547Z,97108.31
2023-03-24T18:13:16.782Z,97130.88
2023-03-24T18:16:09.803Z,97118.16
2023-03-24T18:19:03.551Z,97122.84
2023-03-24T18:21:48.972Z,97133.50
2023-03-24T18:24:34.440Z,97123.97
2023-03-24T18:27:19.944Z,97125.44
2023-03-24T18:30:07.099Z,97131.88
2023-03-24T18:32:52.540Z,97139.34
2023-03-24T18:35:38.193Z,97135.53
2023-03-24T18:38:23.883Z,97136.53
2023-03-24T18:41:10.694Z,97130.59
2023-03-24T18:43:57.891Z,97127.59
2023-03-24T18:46:43.473Z,97129.69
2023-03-24T18:49:28.997Z,97061.69
2023-03-24T18:52:14.189Z,97125.59
2023-03-24T18:54:59.591Z,97141.56
2023-03-24T18:57:44.831Z,97131.59
2023-03-24T19:00:30.278Z,97127.38
2023-03-24T19:03:15.895Z,97126.91
2023-03-24T19:06:02.817Z,97136.09
2023-03-24T19:08:52.838Z,97121.69
2023-03-24T19:11:39.271Z,97060.00
2023-03-24T19:14:25.965Z,97148.69
2023-03-24T19:17:11.441Z,97149.94
2023-03-24T19:19:56.804Z,97150.66
2023-03-24T19:22:42.338Z,97150.16
2023-03-24T19:25:27.549Z,97132.97
2023-03-24T19:28:12.899Z,97163.84
2023-03-24T19:31:00.662Z,97170.03
2023-03-24T19:33:47.046Z,97110.63
2023-03-24T19:36:32.131Z,97170.91
2023-03-24T19:39:17.218Z,97177.31
2023-03-24T19:42:02.411Z,97178.09
2023-03-24T19:44:47.954Z,97185.16
2023-03-24T19:47:33.445Z,97174.44
2023-03-24T19:50:18.768Z,97171.59
2023-03-24T19:53:04.336Z,97155.13
2023-03-24T19:55:50.524Z,97159.63
2023-03-24T19:58:35.782Z,97165.78
2023-03-24T20:01:21.389Z,97167.31
2023-03-24T20:04:06.750Z,97170.09
2023-03-24T20:06:52.463Z,97170.03
2023-03-24T20:09:38.171Z,97176.59
2023-03-24T20:12:23.548Z,97174.06
2023-03-24T20:15:08.984Z,97176.91
2023-03-24T20:17:54.497Z,97194.69
2023-03-24T20:20:39.819Z,97176.84
2023-03-24T20:23:25.615Z,97202.84
2023-03-24T20:26:11.171Z,97160.50
2023-03-24T20:28:56.350Z,97208.78
2023-03-24T20:31:41.646Z,97225.25
2023-03-24T20:34:27.839Z,97232.53
2023-03-24T20:37:13.398Z,97238.44
2023-03-24T20:39:59.065Z,97245.75
2023-03-24T20:42:44.621Z,97243.97
2023-03-24T20:45:29.826Z,97236.91
2023-03-24T20:48:15.031Z,97239.31
2023-03-24T20:51:01.014Z,97247.72
2023-03-24T20:53:47.451Z,97250.25
2023-03-24T20:56:34.519Z,97256.97
2023-03-24T20:59:19.801Z,97262.03
2023-03-24T21:02:05.656Z,97264.88
2023-03-24T21:04:51.107Z,97263.66
2023-03-24T21:07:36.323Z,97259.81
2023-03-24T21:10:21.932Z,97252.75
2023-03-24T21:13:08.716Z,97215.09
2023-03-24T21:15:54.105Z,97251.34
2023-03-24T21:18:39.600Z,97258.59
2023-03-24T21:21:24.924Z,97256.19
2023-03-24T21:24:10.536Z,97241.22
2023-03-24T21:26:58.944Z,97236.56
2023-03-24T21:29:44.280Z,97221.19
2023-03-24T21:32:29.555Z,97221.16
2023-03-24T21:35:16.062Z,97220.78
2023-03-24T21:38:01.471Z,97204.78
2023-03-24T21:40:47.276Z,97185.81
2023-03-24T21:43:33.278Z,97171.63
2023-03-24T21:46:19.341Z,97208.25
2023-03-24T21:49:04.935Z,97201.16
2023-03-24T21:51:50.716Z,97191.88
2023-03-24T21:54:35.830Z,97203.19
2023-03-24T21:57:21.015Z,97193.06
2023-03-24T22:00:07.184Z,97179.91
2023-03-24T22:02:56.454Z,97189.22
2023-03-24T22:05:41.699Z,97181.34
2023-03-24T22:08:27.713Z,97182.97
2023-03-24T22:11:13.268Z,97186.41
2023-03-24T22:13:59.900Z,97173.84
2023-03-24T22:16:45.857Z,97179.50
2023-03-24T22:19:30.923Z,97165.78
2023-03-24T22:22:16.507Z,97181.13
2023-03-24T22:25:03.310Z,97183.97
2023-03-24T22:27:49.922Z,97182.97
2023-03-24T22:30:36.757Z,97177.31
2023-03-24T22:33:22.077Z,97178.91
2023-03-24T22:36:08.409Z,97156.66
2023-03-24T22:38:53.751Z,97149.19
2023-03-24T22:41:39.048Z,97174.66
2023-03-24T22:44:28.118Z,97172.03
2023-03-24T22:47:13.533Z,97177.09
2023-03-24T22:49:58.660Z,97182.34
2023-03-24T22:52:44.093Z,97182.34
2023-03-24T22:55:29.344Z,97187.44
2023-03-24T22:58:14.919Z,97186.41
2023-03-24T23:01:00.385Z,97186.00
2023-03-24T23:03:45.932Z,97183.56
2023-03-24T23:06:31.217Z,97185.19
2023-03-24T23:09:16.556Z,97196.09
2023-03-24T23:12:01.948Z,97193.25
2023-03-24T23:14:47.471Z,97132.22
2023-03-24T23:17:32.825Z,97138.28
2023-03-24T23:20:19.302Z,97200.13
2023-03-24T23:23:06.377Z,97200.94
2023-03-24T23:25:52.238Z,97224.41
2023-03-24T23:28:37.405Z,97220.31
2023-03-24T23:31:25.641Z,97192.31
2023-03-24T23:34:11.523Z,97217.00
2023-03-24T23:36:56.870Z,97160.06
2023-03-24T23:39:42.335Z,97203.00
2023-03-24T23:42:28.725Z,97198.28
2023-03-24T23:45:17.312Z,97196.22
2023-03-24T23:48:02.626Z,97161.38
2023-03-24T23:50:55.829Z,97202.88
2023-03-24T23:53:41.441Z,97207.94
2023-03-24T23:56:26.583Z,97118.75
2023-03-24T23:59:11.999Z,97196.47
